Time;durP1;ratioP1;P1;durP2;ratioP2;P2;SDS_P1;SDS_P2;PMS_P1;PMS_P2;Temp;Humidity;BMP_temperature;BMP_pressure;BME280_temperature;BME280_humidity;BME280_pressure;Samples;Min_cycle;Max_cycle;Signal;HPM_P1;HPM_P2
2024/01/12 00:00:50;;;;;;;31.67;17.33;;;;;;;-2.35;84.72;96580.16;4970984;28;20218;-87
2024/01/12 00:03:18;;;;;;;32.57;17.63;;;;;;;-2.30;84.16;96563.09;4967029;28;20658;-87
2024/01/12 00:05:56;;;;;;;32.80;18.40;;;;;;;-2.31;84.13;96564.00;4971435;28;20263;-86
2024/01/12 00:08:41;;;;;;;31.47;16.87;;;;;;;-2.28;83.87;96559.59;4971054;28;20258;-86
2024/01/12 00:11:23;;;;;;;30.87;17.17;;;;;;;-2.22;84.04;96551.75;4963709;28;20193;-85
2024/01/12 00:17:02;;;;;;;25.13;14.93;;;;;;;-2.23;83.25;96531.63;4967208;28;20254;-85
2024/01/12 00:19:32;;;;;;;26.43;15.23;;;;;;;-2.23;82.98;96526.59;4961500;28;20211;-86
2024/01/12 00:22:02;;;;;;;25.37;15.03;;;;;;;-2.28;83.19;96531.03;4952679;28;20205;-86
2024/01/12 00:24:48;;;;;;;27.13;14.80;;;;;;;-2.23;83.17;96542.53;4965990;28;20212;-86
2024/01/12 00:27:16;;;;;;;25.37;15.27;;;;;;;-2.19;83.32;96558.34;4952730;28;20260;-86
2024/01/12 00:30:09;;;;;;;27.97;15.03;;;;;;;-2.22;83.31;96553.44;4954018;28;20851;-85
2024/01/12 00:32:50;;;;;;;27.03;15.53;;;;;;;-2.31;84.06;96562.25;4942650;28;20209;-86
2024/01/12 00:35:25;;;;;;;25.23;15.27;;;;;;;-2.36;84.68;96581.88;4968722;28;20867;-85
2024/01/12 00:38:03;;;;;;;23.60;14.10;;;;;;;-2.37;85.11;96594.53;4971521;28;20215;-86
2024/01/12 00:40:45;;;;;;;27.70;15.87;;;;;;;-2.32;85.48;96597.66;4972074;28;20259;-85
2024/01/12 00:46:15;;;;;;;23.63;13.27;;;;;;;-2.35;85.50;96610.41;4970735;28;20200;-86
2024/01/12 00:49:02;;;;;;;21.93;13.20;;;;;;;-2.38;85.48;96608.84;4975648;28;20290;-86
2024/01/12 00:51:53;;;;;;;20.93;13.17;;;;;;;-2.35;85.32;96601.16;4891108;29;20260;-85
2024/01/12 00:54:36;;;;;;;22.90;13.57;;;;;;;-2.29;84.72;96593.28;4887187;28;20279;-86
2024/01/12 00:57:23;;;;;;;20.87;12.97;;;;;;;-2.28;84.69;96576.44;4974317;28;20220;-85
2024/01/12 01:00:25;;;;;;;21.57;13.10;;;;;;;-2.36;84.38;96573.47;4975569;28;20208;-86
2024/01/12 01:03:02;;;;;;;21.10;13.13;;;;;;;-2.36;85.38;96598.69;4976582;28;20669;-85
2024/01/12 01:05:37;;;;;;;22.40;13.47;;;;;;;-2.32;85.12;96597.66;4974555;28;20222;-86
2024/01/12 01:08:15;;;;;;;26.93;15.40;;;;;;;-2.24;84.80;96591.34;4965734;28;20246;-85
2024/01/12 01:11:35;;;;;;;24.70;14.63;;;;;;;-2.19;84.54;96584.41;4973511;28;20193;-85
2024/01/12 01:14:05;;;;;;;22.40;13.63;;;;;;;-2.15;84.34;96588.41;4954660;28;20555;-85
2024/01/12 01:16:46;;;;;;;22.47;12.90;;;;;;;-2.13;84.11;96584.09;4972040;28;20725;-85
2024/01/12 01:22:00;;;;;;;22.37;12.73;;;;;;;-2.11;83.72;96584.00;4957628;28;20624;-87
2024/01/12 01:24:41;;;;;;;21.33;13.10;;;;;;;-2.11;84.03;96587.34;4964761;28;20268;-86
2024/01/12 01:27:16;;;;;;;20.43;12.57;;;;;;;-2.09;84.06;96590.59;4959103;28;20216;-87
2024/01/12 01:30:02;;;;;;;21.97;12.90;;;;;;;-2.10;83.70;96588.97;4977011;28;20204;-85
2024/01/12 01:39:01;;;;;;;23.97;13.70;;;;;;;-1.97;82.97;96576.59;4968627;28;20220;-85
2024/01/12 01:41:34;;;;;;;21.27;13.20;;;;;;;-1.91;83.09;96588.06;4961973;28;20255;-86
2024/01/12 01:44:10;;;;;;;23.63;13.73;;;;;;;-1.94;83.13;96588.25;4955553;28;20201;-86
2024/01/12 01:46:43;;;;;;;23.33;14.30;;;;;;;-1.88;83.17;96593.78;4971254;28;20223;-87
2024/01/12 01:52:28;;;;;;;25.53;14.30;;;;;;;-1.78;82.83;96592.47;4970846;28;20620;-86
2024/01/12 01:55:01;;;;;;;24.13;13.97;;;;;;;-1.77;83.04;96599.13;4968986;28;20331;-86
2024/01/12 02:00:43;;;;;;;25.47;14.57;;;;;;;-1.66;82.68;96605.34;4954030;28;20207;-86
2024/01/12 02:03:10;;;;;;;27.67;16.23;;;;;;;-1.67;82.96;96596.13;4973616;28;20220;-85
2024/01/12 02:05:42;;;;;;;25.73;15.07;;;;;;;-1.65;82.75;96595.16;4973737;28;20235;-85
2024/01/12 02:08:15;;;;;;;25.17;15.37;;;;;;;-1.64;83.03;96598.50;4973637;28;20259;-86
2024/01/12 02:10:52;;;;;;;26.07;16.30;;;;;;;-1.62;83.08;96602.59;4970337;28;20331;-86
2024/01/12 02:13:21;;;;;;;27.93;16.37;;;;;;;-1.58;83.16;96598.22;4969390;28;20211;-86
2024/01/12 02:18:43;;;;;;;28.40;15.10;;;;;;;-1.63;83.33;96603.47;4967001;28;20204;-86
2024/01/12 02:21:11;;;;;;;24.60;14.67;;;;;;;-1.63;83.42;96600.16;4973509;28;20199;-85
2024/01/12 02:23:42;;;;;;;26.37;15.60;;;;;;;-1.61;83.39;96603.41;4973425;28;20204;-86
2024/01/12 02:26:28;;;;;;;24.90;15.10;;;;;;;-1.66;83.38;96605.34;4971400;28;20210;-85
2024/01/12 02:29:12;;;;;;;25.27;14.87;;;;;;;-1.66;83.71;96596.06;4966958;28;20307;-88
2024/01/12 02:31:49;;;;;;;25.17;15.03;;;;;;;-1.66;83.74;96597.78;4973334;28;20200;-85
2024/01/12 02:37:33;;;;;;;25.83;15.23;;;;;;;-1.83;84.02;96588.53;4970131;28;20287;-85
2024/01/12 02:40:03;;;;;;;24.40;13.97;;;;;;;-1.82;84.13;96592.69;4972959;28;20208;-85
2024/01/12 02:42:30;;;;;;;21.53;13.27;;;;;;;-1.91;84.47;96581.31;4969851;28;20916;-86
2024/01/12 02:45:09;;;;;;;23.50;14.23;;;;;;;-1.89;84.33;96579.53;4973870;28;20212;-86
2024/01/12 02:47:46;;;;;;;24.77;14.27;;;;;;;-1.81;83.94;96574.13;4974159;28;20228;-85
2024/01/12 02:50:13;;;;;;;25.33;15.07;;;;;;;-1.74;83.50;96562.84;4973933;28;20203;-86
2024/01/12 02:52:42;;;;;;;22.97;14.53;;;;;;;-1.80;83.29;96546.28;4974095;28;20674;-85
2024/01/12 02:55:17;;;;;;;23.30;13.83;;;;;;;-1.76;82.85;96535.16;4971655;28;20671;-85
2024/01/12 02:57:44;;;;;;;22.77;13.83;;;;;;;-1.74;82.56;96524.97;4954772;29;20262;-86
2024/01/12 03:00:18;;;;;;;24.30;13.93;;;;;;;-1.70;82.27;96518.84;4969249;28;20212;-84
2024/01/12 03:02:54;;;;;;;23.03;14.23;;;;;;;-1.72;82.04;96495.38;4973480;28;20214;-85
2024/01/12 03:05:29;;;;;;;22.10;14.07;;;;;;;-1.68;82.03;96481.72;4973857;28;20207;-86
2024/01/12 03:08:04;;;;;;;22.10;13.57;;;;;;;-1.73;82.11;96481.13;4972728;28;20327;-85
2024/01/12 03:10:45;;;;;;;20.83;12.83;;;;;;;-1.75;81.90;96483.78;4970063;28;20228;-85
2024/01/12 03:13:17;;;;;;;20.73;13.27;;;;;;;-1.71;81.92;96479.34;4970308;28;20204;-85
2024/01/12 03:15:54;;;;;;;22.90;13.70;;;;;;;-1.72;81.89;96482.78;4966756;28;20627;-85
2024/01/12 03:18:55;;;;;;;22.33;13.73;;;;;;;-1.79;82.04;96489.84;4955335;28;20675;-86
2024/01/12 03:21:35;;;;;;;22.83;12.73;;;;;;;-1.79;81.90;96494.09;4970323;28;20230;-86
2024/01/12 03:24:14;;;;;;;26.07;13.10;;;;;;;-1.75;81.83;96493.88;4971157;28;20258;-86
2024/01/12 03:26:43;;;;;;;25.83;14.00;;;;;;;-1.73;81.54;96491.22;4972643;28;20628;-86
2024/01/12 03:29:12;;;;;;;21.90;13.33;;;;;;;-1.75;81.52;96488.00;4975616;28;20294;-87
2024/01/12 03:32:25;;;;;;;24.03;13.07;;;;;;;-1.76;81.29;96479.63;4980178;28;20267;-85
2024/01/12 03:35:27;;;;;;;20.03;12.13;;;;;;;-1.77;80.92;96479.69;4963204;28;20196;-86
2024/01/12 03:44:22;;;;;;;21.43;13.17;;;;;;;-1.75;80.63;96475.38;4882636;28;20259;-85
2024/01/12 03:47:18;;;;;;;22.53;12.73;;;;;;;-1.75;80.57;96461.06;4958219;28;20213;-84
2024/01/12 03:49:46;;;;;;;20.10;12.83;;;;;;;-1.76;80.38;96458.59;4961906;28;20270;-86
2024/01/12 03:52:13;;;;;;;22.60;13.63;;;;;;;-1.78;80.53;96466.25;4958148;28;20245;-86
2024/01/12 03:54:42;;;;;;;19.80;12.20;;;;;;;-1.76;80.50;96469.50;4978342;28;20592;-87
2024/01/12 03:57:16;;;;;;;20.67;12.33;;;;;;;-1.77;80.46;96465.34;4956758;28;20220;-86
2024/01/12 03:59:54;;;;;;;21.27;12.40;;;;;;;-1.75;80.24;96456.00;4953437;29;20569;-86
2024/01/12 04:02:26;;;;;;;21.07;12.53;;;;;;;-1.77;80.01;96450.22;4958128;28;20214;-86
2024/01/12 04:05:09;;;;;;;21.73;12.37;;;;;;;-1.78;79.97;96442.72;4960897;28;20300;-86
2024/01/12 04:07:36;;;;;;;22.47;12.73;;;;;;;-1.77;79.81;96447.69;4973042;28;20235;-86
2024/01/12 04:10:18;;;;;;;21.17;12.20;;;;;;;-1.84;79.53;96430.41;4973401;28;20226;-85
2024/01/12 04:12:45;;;;;;;20.47;12.17;;;;;;;-1.94;79.45;96430.09;4963592;28;20676;-85
2024/01/12 04:15:22;;;;;;;22.40;12.93;;;;;;;-1.90;79.67;96440.81;4975630;28;20267;-87
2024/01/12 04:17:56;;;;;;;20.27;11.67;;;;;;;-1.88;79.63;96437.31;4976392;28;20242;-86
2024/01/12 04:20:28;;;;;;;21.07;12.40;;;;;;;-1.87;80.01;96438.13;4971575;28;20915;-87
2024/01/12 04:23:08;;;;;;;21.77;12.30;;;;;;;-1.88;79.26;96426.41;4976760;28;20208;-87
2024/01/12 04:25:45;;;;;;;19.40;11.77;;;;;;;-1.90;79.35;96421.44;4973154;28;20380;-87
2024/01/12 04:28:20;;;;;;;19.90;12.10;;;;;;;-1.88;79.36;96417.13;4976606;28;20219;-89
2024/01/12 04:30:54;;;;;;;16.63;11.20;;;;;;;-1.92;79.14;96397.19;4977594;28;20233;-87
2024/01/12 04:33:34;;;;;;;20.47;12.57;;;;;;;-1.96;79.00;96406.66;4976295;28;20235;-85
2024/01/12 04:36:08;;;;;;;18.77;11.53;;;;;;;-1.94;79.23;96412.44;4968755;28;20204;-87
2024/01/12 04:38:47;;;;;;;20.47;12.43;;;;;;;-1.91;78.76;96419.00;4962714;28;20204;-86
2024/01/12 04:41:27;;;;;;;21.00;12.93;;;;;;;-1.94;78.93;96414.13;4966665;28;20693;-86
2024/01/12 04:44:01;;;;;;;21.03;12.17;;;;;;;-1.94;78.91;96422.53;4976902;28;20196;-86
2024/01/12 04:46:35;;;;;;;21.60;12.53;;;;;;;-1.97;79.18;96430.25;4977028;28;20227;-85
2024/01/12 04:49:28;;;;;;;20.60;13.20;;;;;;;-1.95;79.25;96431.00;4980171;28;20228;-85
2024/01/12 04:51:57;;;;;;;20.73;13.07;;;;;;;-1.96;79.60;96449.53;4969526;28;20300;-86
2024/01/12 04:54:26;;;;;;;23.60;13.67;;;;;;;-1.92;79.57;96457.75;4956647;28;20249;-85
2024/01/12 04:57:00;;;;;;;22.67;13.43;;;;;;;-1.88;79.77;96460.03;4973464;28;20224;-85
2024/01/12 04:59:40;;;;;;;24.13;13.40;;;;;;;-1.80;79.76;96460.47;4976125;28;20284;-86
2024/01/12 05:02:17;;;;;;;22.13;13.30;;;;;;;-1.79;79.15;96456.22;4973953;28;20196;-86
2024/01/12 05:04:51;;;;;;;22.47;14.20;;;;;;;-1.77;79.19;96462.03;4970451;28;20582;-85
2024/01/12 05:07:24;;;;;;;22.47;13.70;;;;;;;-1.78;79.54;96473.00;4973990;28;20504;-85
2024/01/12 05:10:15;;;;;;;22.77;13.67;;;;;;;-1.78;79.75;96486.44;4966217;28;20660;-85
2024/01/12 05:12:56;;;;;;;24.77;14.50;;;;;;;-1.78;79.84;96488.97;4978931;28;20220;-85
2024/01/12 05:18:39;;;;;;;26.23;14.10;;;;;;;-1.79;79.89;96489.84;4965835;28;20263;-84
2024/01/12 05:21:07;;;;;;;22.30;14.33;;;;;;;-1.77;80.12;96485.56;4975308;28;20211;-83
2024/01/12 05:23:44;;;;;;;;;;;;;;;;;;;;;
2024/01/12 05:26:24;;;;;;;25.20;15.37;;;;;;;-1.70;80.16;96491.06;4964312;28;20211;-84
2024/01/12 05:29:12;;;;;;;23.37;14.40;;;;;;;-1.67;79.77;96497.69;4977263;28;20247;-88
2024/01/12 05:31:39;;;;;;;23.93;14.43;;;;;;;-1.68;80.30;96493.53;4975493;28;20228;-89
2024/01/12 05:34:28;;;;;;;;;;;;;;;;;;;;;
2024/01/12 05:37:08;;;;;;;25.23;14.47;;;;;;;-1.64;79.81;96495.81;4994062;28;20236;-85
2024/01/12 05:39:40;;;;;;;25.80;15.50;;;;;;;-1.62;79.78;96500.78;4992257;28;20211;-85
2024/01/12 05:48:44;;;;;;;26.03;15.53;;;;;;;-1.74;79.62;96504.78;4968517;28;20247;-86
2024/01/12 05:51:21;;;;;;;29.17;15.83;;;;;;;-1.76;79.94;96517.47;4989748;28;20264;-84
2024/01/12 05:53:48;;;;;;;26.13;15.23;;;;;;;-1.77;79.77;96510.78;4984985;28;20192;-87
2024/01/12 05:59:02;;;;;;;23.57;15.17;;;;;;;-1.78;79.58;96520.97;4976216;28;20216;-86
2024/01/12 06:01:34;;;;;;;26.00;15.43;;;;;;;-1.78;79.83;96528.53;4976941;28;20216;-87
2024/01/12 06:04:26;;;;;;;25.33;15.70;;;;;;;-1.76;79.91;96520.00;4977228;28;20200;-86
2024/01/12 06:07:06;;;;;;;24.53;14.80;;;;;;;-1.70;79.35;96518.84;4976835;28;20865;-86
2024/01/12 06:12:40;;;;;;;25.60;14.33;;;;;;;-1.74;79.29;96492.16;4965873;28;20212;-83
2024/01/12 06:18:20;;;;;;;27.13;15.80;;;;;;;-1.84;79.01;96496.84;4917431;29;20262;-87
2024/01/12 06:20:47;;;;;;;25.97;16.07;;;;;;;-1.87;78.99;96496.19;4959065;28;20266;-86
2024/01/12 06:23:34;;;;;;;24.03;15.23;;;;;;;-1.87;79.16;96507.09;4974200;28;20224;-86
2024/01/12 06:26:12;;;;;;;27.03;15.77;;;;;;;-1.93;78.81;96489.75;4954102;28;20212;-85
2024/01/12 06:28:45;;;;;;;26.67;15.23;;;;;;;-1.93;78.93;96488.94;4959336;28;20596;-86
2024/01/12 06:33:53;;;;;;;25.83;16.33;;;;;;;-1.90;78.66;96481.19;4968595;28;20200;-86
2024/01/12 06:36:38;;;;;;;26.70;16.10;;;;;;;-1.97;78.49;96469.81;4973674;28;20208;-86
2024/01/12 06:44:46;;;;;;;28.27;16.00;;;;;;;-2.05;78.95;96495.41;4963645;28;20211;-87
2024/01/12 06:47:19;;;;;;;26.70;16.27;;;;;;;-2.15;80.50;96547.22;4962545;28;20239;-87
2024/01/12 06:50:05;;;;;;;27.17;16.37;;;;;;;-2.19;80.83;96546.56;4966069;28;20231;-85
2024/01/12 06:52:39;;;;;;;29.40;15.97;;;;;;;-2.18;80.44;96549.91;4966397;28;20658;-86
2024/01/12 06:55:09;;;;;;;28.73;15.17;;;;;;;-2.21;80.64;96542.47;4965620;28;20198;-86
2024/01/12 06:57:43;;;;;;;27.33;15.23;;;;;;;-2.18;82.29;96605.38;4966488;28;20701;-87
2024/01/12 07:00:24;;;;;;;29.03;15.73;;;;;;;-2.19;82.80;96602.03;4961047;28;20200;-86
2024/01/12 07:02:52;;;;;;;26.67;15.73;;;;;;;-2.15;81.17;96565.69;4964180;28;20216;-86
2024/01/12 07:05:28;;;;;;;24.70;15.70;;;;;;;-2.11;85.31;96680.69;4972109;28;20200;-86
2024/01/12 07:11:53;;;;;;;24.73;14.97;;;;;;;-1.98;81.05;96562.34;4930282;29;20750;-86
2024/01/12 07:15:08;;;;;;;28.57;16.23;;;;;;;-1.92;80.02;96536.78;4930342;29;20217;-86
2024/01/12 07:20:29;;;;;;;28.70;16.20;;;;;;;-1.92;79.11;96501.44;4919204;28;20211;-86
2024/01/12 07:23:40;;;;;;;25.13;15.53;;;;;;;-1.87;79.31;96493.66;4972879;28;20251;-86
2024/01/12 07:29:16;;;;;;;24.77;15.13;;;;;;;-1.83;78.82;96478.28;4936787;28;20200;-86
2024/01/12 07:31:54;;;;;;;27.57;16.43;;;;;;;-1.86;78.34;96467.53;4976556;28;20200;-86
2024/01/12 07:34:36;;;;;;;31.10;15.87;;;;;;;-1.84;78.06;96458.16;4971359;28;20205;-85
2024/01/12 07:37:29;;;;;;;24.93;14.50;;;;;;;-1.84;77.65;96453.94;4974115;28;20216;-86
2024/01/12 07:40:31;;;;;;;26.40;16.03;;;;;;;-1.83;77.73;96452.22;4953550;29;20280;-86
2024/01/12 07:43:33;;;;;;;29.57;15.63;;;;;;;-1.80;77.59;96447.03;4957829;28;20747;-87
2024/01/12 07:46:36;;;;;;;;;;;;;;;;;;;;;
2024/01/12 07:49:17;;;;;;;23.57;14.83;;;;;;;-1.80;77.03;96430.19;4962433;28;20215;-86
2024/01/12 07:52:00;;;;;;;24.60;14.70;;;;;;;-1.76;76.98;96430.84;4964423;28;20251;-86
2024/01/12 07:54:38;;;;;;;26.23;14.83;;;;;;;-1.78;76.82;96415.78;4964831;28;20770;-86
2024/01/12 07:57:22;;;;;;;25.67;15.83;;;;;;;-1.70;76.48;96406.97;4971909;28;20224;-86
2024/01/12 07:59:57;;;;;;;30.77;16.27;;;;;;;-1.69;75.95;96386.69;4970126;28;20943;-85
2024/01/12 08:02:39;;;;;;;26.17;16.03;;;;;;;-1.57;75.55;96386.03;4969056;28;20216;-85
2024/01/12 08:05:16;;;;;;;25.57;15.73;;;;;;;-1.47;75.41;96371.19;4959257;28;20205;-85
2024/01/12 08:08:13;;;;;;;23.97;15.27;;;;;;;-1.43;74.59;96355.81;4962121;28;20271;-85
2024/01/12 08:10:50;;;;;;;26.63;16.00;;;;;;;-1.33;74.40;96351.03;4933986;28;20686;-85
2024/01/12 08:13:17;;;;;;;26.27;15.47;;;;;;;-1.27;74.26;96340.59;4966843;28;20218;-86
2024/01/12 08:15:48;;;;;;;27.10;16.50;;;;;;;-1.28;74.28;96326.34;4963512;28;20215;-85
2024/01/12 08:18:15;;;;;;;27.47;17.40;;;;;;;-1.17;74.37;96336.69;4960619;28;20220;-86
2024/01/12 08:20:42;;;;;;;26.90;16.53;;;;;;;-1.05;73.79;96325.88;4966408;28;20195;-86
2024/01/12 08:23:14;;;;;;;27.20;17.20;;;;;;;-0.90;73.51;96319.09;4968645;28;20223;-86
2024/01/12 08:25:44;;;;;;;39.10;23.87;;;;;;;-0.73;73.16;96313.88;4960005;28;20764;-86
2024/01/12 08:28:25;;;;;;;35.40;22.27;;;;;;;-0.54;72.37;96307.75;4975733;28;20216;-86
2024/01/12 08:34:00;;;;;;;25.37;16.97;;;;;;;-0.01;71.35;96239.53;4962937;28;20716;-87
2024/01/12 08:36:29;;;;;;;26.63;17.33;;;;;;;0.21;70.37;96216.19;4975020;28;20224;-86
2024/01/12 08:38:56;;;;;;;29.03;17.77;;;;;;;0.40;69.84;96187.94;4970114;28;20200;-87
2024/01/12 08:41:22;;;;;;;30.23;17.70;;;;;;;0.59;68.94;96160.50;4957116;28;20205;-85
2024/01/12 08:43:53;;;;;;;28.70;18.40;;;;;;;0.83;68.54;96131.91;4975811;28;20209;-87
2024/01/12 08:46:38;;;;;;;24.47;13.53;;;;;;;1.57;100.00;96926.16;4972799;28;20204;-85
2024/01/12 08:52:07;;;;;;;27.23;17.73;;;;;;;1.74;67.36;95908.06;4956689;28;20204;-86
2024/01/12 08:54:46;;;;;;;27.53;17.80;;;;;;;1.68;66.53;95850.16;4965066;28;20204;-86
2024/01/12 08:57:12;;;;;;;25.47;17.57;;;;;;;1.63;65.88;95818.44;4970599;28;20525;-83
2024/01/12 09:00:28;;;;;;;25.90;17.43;;;;;;;1.60;66.06;95834.69;4972046;28;20201;-87
2024/01/12 09:03:30;;;;;;;25.67;17.63;;;;;;;1.63;65.76;95821.78;4967312;28;20192;-86
2024/01/12 09:05:57;;;;;;;26.23;18.63;;;;;;;1.67;65.76;95815.56;4976185;28;20255;-87
2024/01/12 09:09:10;;;;;;;26.57;17.70;;;;;;;1.67;65.38;95799.53;4974558;28;20252;-87
2024/01/12 09:11:42;;;;;;;26.07;17.67;;;;;;;1.66;65.21;95803.78;4956164;28;20601;-86
2024/01/12 09:14:11;;;;;;;28.10;19.37;;;;;;;1.72;65.27;95812.69;4969125;28;20197;-86
2024/01/12 09:19:29;;;;;;;43.10;28.47;;;;;;;1.78;65.16;95822.34;4738822;26;20764;-86
2024/01/12 09:21:59;;;;;;;32.00;19.67;;;;;;;1.73;65.06;95796.53;4974634;28;20204;-86
2024/01/12 09:24:52;;;;;;;28.87;18.60;;;;;;;1.87;65.24;95814.03;4973695;28;20218;-86
2024/01/12 09:27:34;;;;;;;29.77;20.10;;;;;;;1.87;64.85;95778.50;4960314;28;20227;-86
2024/01/12 09:32:59;;;;;;;31.33;20.27;;;;;;;1.98;64.98;95768.31;4930430;28;20207;-87
2024/01/12 09:35:30;;;;;;;33.10;20.47;;;;;;;1.99;64.37;95752.16;4976354;28;20291;-86
2024/01/12 09:37:59;;;;;;;31.90;20.93;;;;;;;2.01;64.52;95745.22;4966969;28;20209;-86
2024/01/12 09:40:31;;;;;;;32.70;20.83;;;;;;;1.97;63.80;95698.16;4955362;29;20572;-86
2024/01/12 09:43:24;;;;;;;31.43;20.53;;;;;;;2.07;63.77;95729.50;4964389;28;20192;-86
2024/01/12 09:45:57;;;;;;;34.87;22.23;;;;;;;1.93;63.76;95713.72;4973200;28;20259;-86
2024/01/12 09:48:33;;;;;;;32.33;22.37;;;;;;;2.03;64.01;95737.50;4957263;28;20915;-86
2024/01/12 09:51:02;;;;;;;32.80;22.33;;;;;;;1.99;64.17;95747.06;4955638;29;20714;-86
2024/01/12 09:53:43;;;;;;;35.03;22.43;;;;;;;1.95;64.46;95763.47;4967428;28;20695;-86
2024/01/12 09:56:12;;;;;;;32.57;20.93;;;;;;;1.92;64.72;95784.03;4964064;28;20204;-87
2024/01/12 09:59:04;;;;;;;36.30;22.77;;;;;;;1.92;64.81;95793.38;4964512;28;20300;-86
2024/01/12 10:01:44;;;;;;;37.17;22.40;;;;;;;1.92;64.90;95817.03;4975024;28;20869;-87
2024/01/12 10:04:18;;;;;;;34.37;22.03;;;;;;;1.82;64.97;95800.88;4973466;28;20188;-86
2024/01/12 10:06:48;;;;;;;35.67;22.00;;;;;;;1.83;65.30;95825.34;4975712;28;20230;-87
2024/01/12 10:09:16;;;;;;;34.70;22.00;;;;;;;1.87;64.94;95805.63;4974713;28;20197;-86
2024/01/12 10:11:46;;;;;;;35.17;23.10;;;;;;;2.02;64.86;95794.28;4963468;28;20224;-86
2024/01/12 10:14:20;;;;;;;32.93;21.57;;;;;;;2.01;64.36;95768.06;4957978;28;20239;-86
2024/01/12 10:16:53;;;;;;;36.63;23.30;;;;;;;2.11;64.53;95783.41;4972522;28;20240;-87
2024/01/12 10:19:20;;;;;;;36.27;23.70;;;;;;;1.96;64.56;95774.44;4961584;28;20252;-87
2024/01/12 10:21:55;;;;;;;37.13;23.30;;;;;;;2.02;64.49;95790.00;4956113;29;20254;-86
2024/01/12 10:28:21;;;;;;;;;;;;;;;;;;;;;
2024/01/12 10:31:04;;;;;;;35.93;23.63;;;;;;;2.20;64.34;95775.06;4968590;28;20230;-86
2024/01/12 10:33:52;;;;;;;39.37;25.73;;;;;;;2.19;63.97;95757.41;4968709;28;20235;-86
2024/01/12 10:36:22;;;;;;;37.47;24.70;;;;;;;1.92;64.43;95758.66;4956728;29;20209;-86
2024/01/12 10:38:50;;;;;;;38.63;24.20;;;;;;;2.07;64.86;95770.16;4957982;28;20200;-86
2024/01/12 10:41:21;;;;;;;33.83;22.97;;;;;;;2.22;64.05;95757.97;4968064;28;20211;-84
2024/01/12 10:43:58;;;;;;;37.57;24.23;;;;;;;2.43;63.91;95756.28;4971512;28;20200;-86
2024/01/12 10:46:34;;;;;;;39.77;24.47;;;;;;;2.35;63.76;95699.38;4965774;28;20204;-85
2024/01/12 10:49:06;;;;;;;39.50;24.40;;;;;;;2.38;64.81;95712.63;4963399;28;20209;-86
2024/01/12 10:51:42;;;;;;;40.27;25.47;;;;;;;2.42;63.49;95696.22;4974520;28;20228;-86
2024/01/12 10:54:24;;;;;;;39.97;26.63;;;;;;;2.41;63.22;95653.16;4969318;28;20201;-86
2024/01/12 10:56:52;;;;;;;40.73;26.53;;;;;;;2.47;63.60;95685.69;4957902;28;20254;-86
2024/01/12 10:59:21;;;;;;;40.33;26.77;;;;;;;2.64;62.80;95652.06;4960016;28;20597;-86
2024/01/12 11:01:48;;;;;;;44.10;29.30;;;;;;;2.63;62.46;95599.63;4969075;28;20224;-87
2024/01/12 11:04:56;;;;;;;44.13;27.57;;;;;;;2.42;63.05;95625.06;4966612;28;20196;-87
2024/01/12 11:07:41;;;;;;;38.80;26.07;;;;;;;2.56;63.06;95648.53;4973536;28;20228;-85
2024/01/12 11:10:32;;;;;;;41.30;27.30;;;;;;;2.35;62.70;95613.78;4959973;28;20304;-86
2024/01/12 11:12:59;;;;;;;39.63;26.73;;;;;;;2.31;63.42;95626.91;4941735;28;20196;-85
2024/01/12 11:15:27;;;;;;;42.20;27.67;;;;;;;2.28;63.26;95634.75;4955912;28;20208;-85
2024/01/12 11:17:54;;;;;;;42.27;27.00;;;;;;;2.48;63.06;95661.09;4953667;28;20639;-86
2024/01/12 11:20:21;;;;;;;42.97;27.00;;;;;;;2.51;62.92;95618.41;4964303;28;20204;-86
2024/01/12 11:22:49;;;;;;;39.67;27.20;;;;;;;2.66;62.73;95619.72;4971454;28;20193;-86
2024/01/12 11:25:19;;;;;;;42.83;28.23;;;;;;;2.85;61.93;95560.50;4953985;28;20215;-86
2024/01/12 11:27:59;;;;;;;39.53;26.30;;;;;;;2.85;61.81;95542.72;4955156;29;20235;-86
2024/01/12 11:30:28;;;;;;;42.33;27.63;;;;;;;2.77;61.52;95524.75;4955871;28;20235;-86
2024/01/12 11:33:01;;;;;;;45.37;28.20;;;;;;;2.66;62.33;95552.81;4954862;28;20204;-86
2024/01/12 11:35:45;;;;;;;41.87;27.97;;;;;;;2.60;62.34;95589.72;4956422;28;20208;-87
2024/01/12 11:38:21;;;;;;;42.20;27.97;;;;;;;2.50;62.01;95578.72;4957794;28;20236;-85
2024/01/12 11:41:08;;;;;;;40.97;28.20;;;;;;;2.54;62.82;95602.94;4960908;28;20200;-85
2024/01/12 11:43:35;;;;;;;44.37;28.67;;;;;;;2.73;62.49;95594.56;4959984;28;20204;-86
2024/01/12 11:46:18;;;;;;;42.20;28.77;;;;;;;2.87;61.74;95538.31;4953042;28;20682;-86
2024/01/12 11:52:16;;;;;;;39.57;26.53;;;;;;;3.35;65.53;95772.47;4935872;28;20240;-85
2024/01/12 11:55:21;;;;;;;39.37;26.13;;;;;;;3.44;60.93;95540.13;4859312;29;20268;-88
2024/01/12 11:58:12;;;;;;;;;;;;;;;;;;;;;
2024/01/12 12:04:05;;;;;;;40.43;26.37;;;;;;;3.29;61.05;95498.19;4928826;28;20296;-86
2024/01/12 12:06:33;;;;;;;42.10;27.13;;;;;;;3.41;60.93;95488.69;4969718;28;20224;-86
2024/01/12 12:09:03;;;;;;;41.93;28.53;;;;;;;3.35;60.13;95444.22;4961050;28;20231;-86
2024/01/12 12:11:48;;;;;;;43.23;28.63;;;;;;;3.02;60.71;95450.53;4972780;28;20219;-86
2024/01/12 12:14:14;;;;;;;43.67;29.10;;;;;;;2.74;61.12;95471.63;4972321;28;20204;-85
2024/01/12 12:17:00;;;;;;;44.80;29.70;;;;;;;2.82;62.10;95554.88;4973761;28;20662;-86
2024/01/12 12:19:30;;;;;;;49.57;33.27;;;;;;;2.81;61.51;95538.81;4952312;28;20595;-86
2024/01/12 12:21:57;;;;;;;46.60;30.33;;;;;;;2.64;62.11;95550.41;4975516;28;20204;-84
2024/01/12 12:24:26;;;;;;;47.30;29.83;;;;;;;2.73;62.05;95548.81;4968160;28;20201;-84
2024/01/12 12:27:00;;;;;;;46.50;29.77;;;;;;;2.91;62.00;95549.81;4972837;28;20314;-86
2024/01/12 12:29:30;;;;;;;44.40;29.93;;;;;;;3.13;61.85;95556.41;4973096;28;20320;-86
2024/01/12 12:32:11;;;;;;;;;;;;;;;;;;;;;
2024/01/12 12:34:43;;;;;;;46.37;29.20;;;;;;;3.41;60.42;95497.13;4973238;28;20200;-84
2024/01/12 12:37:23;;;;;;;47.63;30.63;;;;;;;3.50;60.30;95472.59;4978081;28;20290;-86
2024/01/12 12:39:59;;;;;;;;;;;;;;;;;;;;;
2024/01/12 12:42:27;;;;;;;42.70;29.43;;;;;;;3.39;60.46;95462.56;4970569;28;20200;-85
2024/01/12 12:44:54;;;;;;;45.63;29.03;;;;;;;3.33;60.04;95435.09;4976438;28;20189;-87
2024/01/12 12:47:23;;;;;;;49.20;31.63;;;;;;;3.37;60.37;95457.59;4973072;28;20276;-86
2024/01/12 12:50:04;;;;;;;60.93;40.07;;;;;;;3.41;60.32;95463.25;4978745;28;20207;-86
2024/01/12 12:52:31;;;;;;;47.33;32.43;;;;;;;3.56;60.08;95461.06;4979948;28;20230;-85
2024/01/12 12:54:57;;;;;;;47.53;29.20;;;;;;;3.70;59.80;95442.81;4976848;28;20234;-87
2024/01/12 12:57:24;;;;;;;46.20;30.53;;;;;;;3.83;59.63;95430.59;4974643;28;20279;-86
2024/01/12 12:59:54;;;;;;;44.50;30.57;;;;;;;3.90;59.37;95395.97;4963625;28;20207;-86
2024/01/12 13:02:26;;;;;;;47.97;31.20;;;;;;;3.96;58.65;95364.06;4979002;28;20643;-86
2024/01/12 13:04:53;;;;;;;45.77;30.90;;;;;;;3.94;58.72;95351.47;4978279;28;20200;-86
2024/01/12 13:07:23;;;;;;;47.83;30.13;;;;;;;3.69;58.74;95330.00;4977920;28;20307;-86
2024/01/12 13:09:52;;;;;;;45.43;30.43;;;;;;;3.62;59.43;95384.16;4977430;28;20196;-86
2024/01/12 13:12:19;;;;;;;46.70;31.13;;;;;;;3.62;59.31;95390.06;4971066;28;20235;-87
2024/01/12 13:14:48;;;;;;;45.37;30.20;;;;;;;3.73;59.33;95401.81;4968097;28;20217;-86
2024/01/12 13:17:15;;;;;;;43.27;30.00;;;;;;;3.68;59.14;95376.75;4978426;28;20248;-86
2024/01/12 13:19:45;;;;;;;43.23;29.63;;;;;;;3.51;59.30;95380.03;4977418;28;20223;-82
2024/01/12 13:22:12;;;;;;;51.20;30.87;;;;;;;3.04;59.90;95392.72;4981246;28;20283;-84
2024/01/12 13:24:40;;;;;;;45.60;30.60;;;;;;;2.76;60.29;95424.00;4980053;28;20200;-83
2024/01/12 13:27:12;;;;;;;44.67;30.57;;;;;;;2.81;60.80;95451.59;4977774;28;20220;-86
2024/01/12 13:29:39;;;;;;;47.60;32.07;;;;;;;2.86;60.87;95470.59;4972360;28;20208;-85
2024/01/12 13:32:05;;;;;;;46.97;30.97;;;;;;;2.85;61.07;95460.56;4977797;28;20247;-85
2024/01/12 13:34:32;;;;;;;50.17;31.17;;;;;;;2.80;60.87;95438.06;4979074;28;20344;-85
2024/01/12 13:37:01;;;;;;;48.73;31.13;;;;;;;2.81;60.92;95454.94;4979142;28;20223;-85
2024/01/12 13:39:28;;;;;;;46.43;31.00;;;;;;;2.84;60.93;95451.31;4978292;28;20200;-85
2024/01/12 13:42:02;;;;;;;46.30;29.43;;;;;;;2.84;60.25;95421.63;4977925;28;20209;-86
2024/01/12 13:44:29;;;;;;;45.63;29.37;;;;;;;2.72;60.62;95426.00;4975081;28;20307;-86